Portada
METAR-TAF:

METAR-TAF

Aeroports :

Koksijde, Bèlgica

latitud: 51-05N, longitud: 002-39E, altitud: 4 m

Observació

L'informe es va fer fa 22 minuts, a les 14:25 UTC
Vent 10 kt del Nord-Oest
Temperatura 20°C
Humitat 60%
Pressió 1023 hPa
Visibilitat 10 km o més
Escasses núvols a una alçada de 3500 ft
Cel ennuvolat a una alçada de 23000 ft

METAR: EBFN 211425Z 31010KT 9999 FEW035 BKN230 20/12 Q1023 BLU BLU

Hora: 16:47 (14:47 UTC)

Pronòstic

L'informe es va fer fa 3 hores i 6 minuts, a les 11:41 UTC
Pronòstic vàlid del 21 a les 13 UTC al 21 a les 22 UTC
Vent 10 kt del Oest/Nord-Oest
Visibilitat 10 km o més
Escasses núvols a una alçada de 3000 ft
Núvols disperses a una alçada de 20000 ft
Evolucionant progressivament
l' 21 a les 20 UTC al 21 a les 22 UTC
Vent 10 kt del Sud/Sud-Oest

TAF: EBFN 211141Z 2113/2122 29010KT 9999 FEW030 SCT200 BECMG 2120/2122 21010KT

Observacions i pronòstics meteorològics de més de 4000 aeroports (METAR i TAF).

Les estacions disponibles són els punts grocs i vermells al mapa.

Posi el ratolí al punt desitjat per veure el nom de l'estació.

Feu clic per veure les observacions i els pronòstics meteorològics.

Per canviar el mapa: feu clic els botons verds amb una creu de color negre per apropar; al botó verd amb un guió per allunyar la imatge; o en les fletxes verdes per a mapes adjacents.


METAR-TAF: